OJAM

Details ICAO OJAM (ADJ)
Name MARKA INTL
Region Jordan and the West Bank
Timezone Asia/Amman (UTC+3.0)
Plans Departing 63
Arriving 48
Stats Elevation 2,555 ft / 779 m (AMSL)
Location 31.972703° 35.991572°
Runways 1
Magnetic Variation 4.724° E
Sunrise 2018-05-21 02:36:46 UTC / 2018-05-21 05:36:46 Local
Sunset 2018-05-21 16:31:19 UTC / 2018-05-21 19:31:19 Local
Advertisement - Login to hide

Runways

ID Width Length Bearing (true) Bearing (mag) Surface Threshold Offset Overrun Length
06 148 ft / 45 m 10,736 ft / 3,272 m 64.03° 59.31° Asphalt 0 ft / 0 m 735 ft / 224 m
24 148 ft / 45 m 10,736 ft / 3,272 m 244.05° 239.33° Asphalt 0 ft / 0 m 394 ft / 120 m

Approach Navaids

Runway Type Ident Frequency Range Bearing (true) Bearing (mag) Slope Elevation
24 Localiser LAMN 109.50 MHz 18 nm / 33 km 244.07° 239.35° - 2,557 ft / 779 m (AMSL)
24 Glidescope LAMN 109.50 MHz 10 nm / 19 km 244.04° 239.32° 3.00° 2,457 ft / 749 m (AMSL)

Map

Weather


0- 5 10 15 20 25 30 35+ Temperature / ° C

Clouds and Precipitation
Forecast for 2018-05-21 18:00 UTC. Updated 4 hours ago

Ground ~20,000 ft ~40,000 ft Winds

METAR

OJAM 212000Z 00000KT HZ NSC 26/03 Q1017 NOSIG

TAF

TAF OJAM 211650Z 2118/2224 30008 6000 NSC TEMPO 2202/2206 VRB01KT 3000 HZ BECMG 2205/2207 5000 HZ NSC

Frequencies

Ground 121.70 MHz AMMAN GND
Approach 128.90 MHz AMMAN APP
Tower 118.10 MHz AMMAN TWR
Warning: Do not use this data for real-world aviation or navigation. No guarantee of current accuracy is given.